Time;durP1;ratioP1;P1;durP2;ratioP2;P2;SDS_P1;SDS_P2;PMS_P1;PMS_P2;Temp;Humidity;BMP_temperature;BMP_pressure;BME280_temperature;BME280_humidity;BME280_pressure;Samples;Min_cycle;Max_cycle;Signal;HPM_P1;HPM_P2
2021/08/24 00:01:35;;;;;;;3.00;2.80;;;18.40;99.90;;;;;;6351313;28;20463;-62
2021/08/24 00:04:41;;;;;;;2.90;2.33;;;18.30;99.90;;;;;;6351909;28;20483;-62
2021/08/24 00:07:44;;;;;;;3.67;3.20;;;18.30;99.90;;;;;;6352193;28;20479;-62
2021/08/24 00:10:49;;;;;;;6.13;2.87;;;18.30;99.90;;;;;;6352526;28;20472;-62
2021/08/24 00:13:53;;;;;;;3.70;2.90;;;18.20;99.90;;;;;;6352370;28;20463;-62
2021/08/24 00:16:56;;;;;;;4.17;3.00;;;18.20;99.90;;;;;;6351878;28;20976;-62
2021/08/24 00:20:00;;;;;;;5.50;3.00;;;18.20;99.90;;;;;;6352206;28;20528;-62
2021/08/24 00:23:06;;;;;;;4.27;3.07;;;18.10;99.90;;;;;;6351842;28;20436;-62
2021/08/24 00:26:09;;;;;;;2.70;2.50;;;18.10;99.90;;;;;;6351970;28;20754;-62
2021/08/24 00:29:13;;;;;;;2.73;2.53;;;18.00;99.90;;;;;;6351764;28;20490;-62
2021/08/24 00:32:16;;;;;;;3.07;2.77;;;18.00;99.90;;;;;;6351773;28;20447;-62
2021/08/24 00:35:21;;;;;;;2.37;2.17;;;18.10;99.90;;;;;;6352061;28;20571;-62
2021/08/24 00:38:26;;;;;;;3.33;3.03;;;18.10;99.90;;;;;;6351496;28;20794;-62
2021/08/24 00:41:29;;;;;;;4.47;2.80;;;18.00;99.90;;;;;;6351305;28;20541;-62
2021/08/24 00:44:32;;;;;;;5.00;3.17;;;18.00;99.90;;;;;;6351606;28;20462;-62
2021/08/24 00:47:37;;;;;;;2.60;2.37;;;17.90;99.90;;;;;;6351339;28;21034;-62
2021/08/24 00:50:48;;;;;;;3.10;2.60;;;17.90;99.90;;;;;;6351704;28;20471;-62
2021/08/24 00:53:52;;;;;;;5.43;3.67;;;17.80;99.90;;;;;;6351200;28;20460;-62
2021/08/24 00:56:59;;;;;;;2.60;2.40;;;17.80;99.90;;;;;;6341520;28;20487;-62
2021/08/24 01:00:04;;;;;;;2.90;2.60;;;17.80;99.90;;;;;;6351043;28;20497;-62
2021/08/24 01:03:10;;;;;;;2.83;2.63;;;17.70;99.90;;;;;;6351450;27;20991;-62
2021/08/24 01:06:24;;;;;;;3.40;2.80;;;17.70;99.90;;;;;;6351466;28;20953;-62
2021/08/24 01:09:42;;;;;;;2.90;2.60;;;17.60;99.90;;;;;;6351208;28;20478;-62
2021/08/24 01:12:51;;;;;;;3.63;2.40;;;17.50;99.90;;;;;;6350727;27;20459;-62
2021/08/24 01:16:08;;;;;;;2.60;2.40;;;17.50;99.90;;;;;;6350801;28;20479;-62
2021/08/24 01:19:44;;;;;;;5.00;2.83;;;17.40;99.90;;;;;;6350573;28;20468;-62
2021/08/24 01:23:21;;;;;;;3.53;2.83;;;17.30;99.90;;;;;;6333769;28;20463;-62
2021/08/24 01:26:32;;;;;;;3.80;2.70;;;17.40;99.90;;;;;;6347371;28;20474;-62
2021/08/24 01:30:16;;;;;;;3.10;2.80;;;17.40;99.90;;;;;;6350100;27;20845;-63
2021/08/24 01:33:28;;;;;;;6.23;2.80;;;17.30;99.90;;;;;;6350947;28;20470;-63
2021/08/24 01:36:36;;;;;;;3.17;2.90;;;17.20;99.90;;;;;;6350052;28;20563;-63
2021/08/24 01:39:43;;;;;;;4.40;2.40;;;17.10;99.90;;;;;;6350382;28;20470;-62
2021/08/24 01:42:46;;;;;;;3.20;2.43;;;17.10;99.90;;;;;;6350041;28;20463;-62
2021/08/24 01:45:56;;;;;;;3.10;2.73;;;17.10;99.90;;;;;;6350330;28;20471;-62
2021/08/24 01:49:04;;;;;;;2.73;2.53;;;17.10;99.90;;;;;;6349790;28;20482;-63
2021/08/24 01:52:12;;;;;;;4.97;3.23;;;17.20;99.90;;;;;;6350034;28;20463;-62
2021/08/24 01:55:22;;;;;;;3.30;3.00;;;17.20;99.90;;;;;;6349654;28;20999;-62
2021/08/24 01:58:30;;;;;;;3.80;2.60;;;17.10;99.90;;;;;;6349754;28;20480;-62
2021/08/24 02:01:38;;;;;;;3.00;2.70;;;17.10;99.90;;;;;;6340472;28;20480;-62
2021/08/24 02:04:47;;;;;;;3.93;2.93;;;17.10;99.90;;;;;;6349788;28;20544;-63
2021/08/24 02:07:57;;;;;;;2.57;2.37;;;17.10;99.90;;;;;;6348433;28;20475;-62
2021/08/24 02:11:03;;;;;;;3.53;3.03;;;17.10;99.90;;;;;;6349651;28;20476;-62
2021/08/24 02:14:10;;;;;;;4.23;3.83;;;17.10;99.90;;;;;;6349562;28;20431;-62
2021/08/24 02:17:18;;;;;;;4.97;3.10;;;17.20;99.90;;;;;;6349812;28;20452;-62
2021/08/24 02:20:25;;;;;;;3.37;3.17;;;17.10;99.90;;;;;;6349198;28;20751;-62
2021/08/24 02:23:33;;;;;;;3.20;2.90;;;17.10;99.90;;;;;;6349306;28;20967;-62
2021/08/24 02:26:38;;;;;;;5.03;3.23;;;17.00;99.90;;;;;;6349420;28;20478;-62
2021/08/24 02:29:42;;;;;;;5.13;3.27;;;16.80;99.90;;;;;;6349696;28;20464;-62
2021/08/24 02:32:49;;;;;;;5.27;2.73;;;16.60;99.90;;;;;;6349275;28;20467;-62
2021/08/24 02:35:57;;;;;;;2.93;2.73;;;16.60;99.90;;;;;;6349487;28;20778;-62
2021/08/24 02:39:06;;;;;;;4.53;2.70;;;16.60;99.90;;;;;;6349313;28;20472;-62
2021/08/24 02:42:17;;;;;;;6.40;2.80;;;16.60;99.90;;;;;;6349809;28;20581;-62
2021/08/24 02:45:27;;;;;;;2.93;2.70;;;16.60;99.90;;;;;;6349169;28;20467;-62
2021/08/24 02:48:33;;;;;;;6.07;2.60;;;16.60;99.90;;;;;;6349240;28;20509;-62
2021/08/24 02:51:37;;;;;;;3.17;2.80;;;16.60;99.90;;;;;;6349009;28;20517;-62
2021/08/24 02:54:43;;;;;;;2.50;2.30;;;16.60;99.90;;;;;;6328440;28;20479;-62
2021/08/24 02:57:46;;;;;;;2.83;2.57;;;16.60;99.90;;;;;;6329566;28;20494;-62
2021/08/24 03:00:49;;;;;;;5.63;2.40;;;16.60;99.90;;;;;;6333145;28;20455;-62
2021/08/24 03:03:53;;;;;;;3.77;3.00;;;16.60;99.90;;;;;;6322729;28;20503;-62
2021/08/24 03:07:00;;;;;;;2.70;2.50;;;16.60;99.90;;;;;;6323547;28;20476;-62
2021/08/24 03:10:11;;;;;;;2.73;2.53;;;16.40;99.90;;;;;;6322914;28;20476;-62
2021/08/24 03:13:22;;;;;;;4.23;2.90;;;16.40;99.90;;;;;;6323495;28;20469;-62
2021/08/24 03:16:30;;;;;;;2.77;2.53;;;16.40;99.90;;;;;;6323244;28;20476;-62
2021/08/24 03:19:36;;;;;;;6.67;4.07;;;16.40;99.90;;;;;;6326987;28;20479;-62
2021/08/24 03:22:41;;;;;;;6.77;5.07;;;16.40;99.90;;;;;;6327300;28;20819;-62
2021/08/24 03:25:48;;;;;;;13.53;5.80;;;16.40;99.90;;;;;;6332993;28;20483;-63
2021/08/24 03:28:52;;;;;;;12.90;6.20;;;16.30;99.90;;;;;;6339911;28;20490;-63
2021/08/24 03:31:57;;;;;;;17.03;7.17;;;16.30;99.90;;;;;;6353440;28;20482;-63
2021/08/24 03:35:00;;;;;;;10.17;6.13;;;16.20;99.90;;;;;;6348907;28;20516;-62
2021/08/24 03:38:04;;;;;;;5.93;5.03;;;16.20;99.90;;;;;;6344065;28;20470;-63
2021/08/24 03:41:11;;;;;;;8.43;5.93;;;16.20;99.90;;;;;;6352851;28;20768;-62
2021/08/24 03:44:14;;;;;;;7.70;5.90;;;16.30;99.90;;;;;;6353405;28;20453;-62
2021/08/24 03:47:18;;;;;;;6.90;6.30;;;16.40;99.90;;;;;;6352786;28;20971;-62
2021/08/24 03:50:21;;;;;;;5.83;5.00;;;16.30;99.90;;;;;;6352824;27;20788;-63
2021/08/24 03:53:24;;;;;;;5.70;4.60;;;16.40;99.90;;;;;;6352502;28;20452;-65
2021/08/24 03:56:29;;;;;;;5.33;4.60;;;16.50;99.90;;;;;;6352434;28;20464;-63
2021/08/24 03:59:32;;;;;;;4.47;3.00;;;16.60;99.90;;;;;;6352622;28;20463;-63
2021/08/24 04:02:35;;;;;;;3.67;3.33;;;16.50;99.90;;;;;;6352817;28;20459;-63
2021/08/24 04:05:39;;;;;;;6.93;4.20;;;16.50;99.90;;;;;;6352524;28;20812;-63
2021/08/24 04:08:42;;;;;;;6.67;4.40;;;16.50;99.90;;;;;;6347515;27;20964;-63
2021/08/24 04:11:46;;;;;;;6.93;4.60;;;16.40;99.90;;;;;;6352677;28;20467;-63
2021/08/24 04:14:49;;;;;;;5.20;3.93;;;16.40;99.90;;;;;;6352359;27;20474;-63
2021/08/24 04:17:52;;;;;;;4.23;3.90;;;16.40;99.90;;;;;;6352117;28;20472;-63
2021/08/24 04:20:56;;;;;;;4.57;4.17;;;16.40;99.90;;;;;;6352088;28;20556;-63
2021/08/24 04:23:59;;;;;;;5.27;3.90;;;16.40;99.90;;;;;;6351880;27;20478;-63
2021/08/24 04:27:05;;;;;;;4.77;4.27;;;16.30;99.90;;;;;;6351759;28;20835;-63
2021/08/24 04:30:09;;;;;;;3.53;3.20;;;16.30;99.90;;;;;;6351744;28;20483;-63
2021/08/24 04:33:12;;;;;;;4.67;3.77;;;16.30;99.90;;;;;;6352000;28;20482;-63
2021/08/24 04:36:15;;;;;;;4.00;3.30;;;16.40;99.90;;;;;;6351726;28;20464;-63
2021/08/24 04:39:19;;;;;;;5.63;3.40;;;16.30;99.90;;;;;;6352023;28;20475;-63
2021/08/24 04:42:23;;;;;;;5.00;3.47;;;16.40;99.90;;;;;;6351244;28;20808;-63
2021/08/24 04:45:26;;;;;;;5.07;3.20;;;16.40;99.90;;;;;;6351346;28;20814;-63
2021/08/24 04:48:30;;;;;;;2.90;2.70;;;16.30;99.90;;;;;;6351373;28;20532;-63
2021/08/24 04:51:33;;;;;;;4.40;2.80;;;16.40;99.90;;;;;;6351379;28;20475;-63
2021/08/24 04:54:36;;;;;;;3.33;2.43;;;16.70;99.90;;;;;;6351304;28;20543;-63
2021/08/24 04:57:41;;;;;;;3.00;2.23;;;16.90;99.90;;;;;;6351511;28;20862;-63
2021/08/24 05:00:44;;;;;;;4.30;2.30;;;17.00;99.90;;;;;;6350752;28;20475;-63
2021/08/24 05:03:47;;;;;;;6.60;3.27;;;17.20;99.90;;;;;;6351333;28;20467;-64
2021/08/24 05:06:51;;;;;;;2.70;2.40;;;17.30;99.90;;;;;;6350726;28;20467;-63
2021/08/24 05:09:54;;;;;;;6.97;3.40;;;17.30;99.90;;;;;;6350681;28;20478;-63
2021/08/24 05:13:00;;;;;;;2.60;2.40;;;17.40;99.90;;;;;;6350841;28;20482;-64
2021/08/24 05:16:07;;;;;;;3.53;3.23;;;17.50;99.90;;;;;;6349408;28;20474;-63
2021/08/24 05:19:10;;;;;;;3.73;2.93;;;17.50;99.90;;;;;;6350507;28;20584;-63
2021/08/24 05:22:14;;;;;;;4.13;2.60;;;17.60;99.90;;;;;;6350401;28;20464;-63
2021/08/24 05:25:19;;;;;;;4.83;2.10;;;17.70;99.90;;;;;;6350622;28;20481;-63
2021/08/24 05:28:24;;;;;;;3.77;1.97;;;17.80;99.90;;;;;;6350142;28;20502;-64
2021/08/24 05:31:27;;;;;;;6.57;2.27;;;17.80;99.90;;;;;;6350448;28;20491;-63
2021/08/24 05:34:30;;;;;;;2.83;2.03;;;17.90;99.90;;;;;;6350238;28;20475;-64
2021/08/24 05:37:34;;;;;;;7.37;2.27;;;18.00;99.90;;;;;;6350332;28;20553;-63
2021/08/24 05:40:37;;;;;;;4.57;1.97;;;18.00;99.90;;;;;;6349681;28;20471;-63
2021/08/24 05:43:42;;;;;;;3.63;2.40;;;18.00;99.90;;;;;;6350356;28;20468;-63
2021/08/24 05:46:45;;;;;;;2.90;2.60;;;18.10;99.90;;;;;;6349607;28;20471;-63
2021/08/24 05:49:48;;;;;;;9.67;2.40;;;18.00;99.90;;;;;;6350268;28;20463;-63
2021/08/24 05:52:51;;;;;;;2.93;2.63;;;18.10;99.90;;;;;;6349701;28;20483;-63
2021/08/24 05:55:54;;;;;;;6.47;2.97;;;18.10;99.90;;;;;;6349847;28;20468;-63
2021/08/24 05:58:59;;;;;;;2.23;2.03;;;18.20;99.90;;;;;;6349739;28;20475;-64
2021/08/24 06:02:02;;;;;;;2.10;1.90;;;18.30;99.90;;;;;;6349643;28;21185;-64
2021/08/24 06:05:07;;;;;;;3.47;2.30;;;18.40;99.90;;;;;;6347663;28;20554;-64
2021/08/24 06:08:11;;;;;;;6.60;2.33;;;18.50;99.90;;;;;;6346844;28;20796;-64
2021/08/24 06:11:20;;;;;;;3.87;1.97;;;18.60;99.90;;;;;;6347125;28;20475;-63
2021/08/24 06:14:26;;;;;;;4.57;2.30;;;18.70;99.90;;;;;;6341778;28;20459;-63
2021/08/24 06:17:29;;;;;;;5.47;1.73;;;18.90;99.90;;;;;;6348536;28;21071;-63
2021/08/24 06:20:32;;;;;;;3.83;2.23;;;19.10;99.90;;;;;;6347258;28;20475;-63
2021/08/24 06:23:36;;;;;;;5.20;2.00;;;19.20;99.90;;;;;;6348372;28;20232;-63
2021/08/24 06:26:41;;;;;;;4.37;1.97;;;19.30;99.90;;;;;;6347454;28;20233;-63
2021/08/24 06:29:46;;;;;;;5.10;1.60;;;19.40;99.90;;;;;;6347859;28;20310;-64
2021/08/24 06:32:53;;;;;;;3.57;2.57;;;19.30;99.90;;;;;;6348054;28;20240;-65
2021/08/24 06:35:56;;;;;;;4.03;2.17;;;19.50;99.90;;;;;;6349226;28;20575;-63
2021/08/24 06:39:00;;;;;;;3.40;2.30;;;19.70;99.90;;;;;;6348808;28;20233;-63
2021/08/24 06:42:05;;;;;;;2.83;1.67;;;19.80;99.90;;;;;;6349083;28;20236;-62
2021/08/24 06:45:13;;;;;;;2.93;1.43;;;19.90;99.90;;;;;;6348811;28;20248;-63
2021/08/24 06:48:16;;;;;;;4.63;2.10;;;20.00;99.90;;;;;;6349333;28;20226;-63
2021/08/24 06:51:20;;;;;;;4.07;2.00;;;20.20;99.90;;;;;;6349043;28;20229;-63
2021/08/24 06:54:23;;;;;;;1.47;1.37;;;20.30;99.90;;;;;;6352623;27;20232;-63
2021/08/24 06:57:26;;;;;;;4.40;2.23;;;21.00;99.90;;;;;;6354291;28;20240;-64
2021/08/24 07:00:31;;;;;;;4.10;2.63;;;22.10;99.90;;;;;;6353553;28;20244;-63
2021/08/24 07:03:34;;;;;;;4.00;1.77;;;25.00;96.80;;;;;;6354111;28;20229;-63
2021/08/24 07:06:39;;;;;;;5.33;2.10;;;26.30;90.70;;;;;;6353594;28;20709;-63
2021/08/24 07:09:42;;;;;;;2.70;1.90;;;27.20;87.00;;;;;;6353783;27;20240;-63
2021/08/24 07:12:46;;;;;;;2.80;1.70;;;27.40;80.10;;;;;;6353951;28;20293;-64
2021/08/24 07:15:51;;;;;;;2.70;1.77;;;26.70;80.50;;;;;;6353772;28;20278;-63
2021/08/24 07:18:55;;;;;;;5.43;1.87;;;28.00;77.10;;;;;;6348512;28;20681;-63
2021/08/24 07:22:02;;;;;;;2.43;1.90;;;28.30;71.40;;;;;;6353483;28;20221;-63
2021/08/24 07:25:10;;;;;;;4.40;1.77;;;27.80;72.50;;;;;;6353677;28;20239;-64
2021/08/24 07:28:13;;;;;;;3.13;1.47;;;27.20;71.40;;;;;;6353320;28;20236;-63
2021/08/24 07:31:18;;;;;;;3.37;1.77;;;26.70;72.80;;;;;;6353031;27;20612;-64
2021/08/24 07:34:21;;;;;;;2.20;1.43;;;26.40;73.80;;;;;;6353159;28;20599;-63
2021/08/24 07:37:24;;;;;;;2.47;2.10;;;26.20;74.80;;;;;;6353086;28;20228;-63
2021/08/24 07:40:27;;;;;;;4.10;1.57;;;26.30;74.90;;;;;;6353170;28;20236;-63
2021/08/24 07:43:31;;;;;;;3.40;1.70;;;27.90;71.10;;;;;;6342547;28;20224;-63
2021/08/24 07:46:35;;;;;;;4.77;2.40;;;28.20;68.20;;;;;;6328179;28;20252;-63
2021/08/24 07:49:39;;;;;;;2.90;1.50;;;28.00;67.40;;;;;;6334170;28;20224;-63
2021/08/24 07:52:43;;;;;;;2.83;1.90;;;28.00;66.80;;;;;;6329312;28;20216;-63
2021/08/24 07:55:46;;;;;;;1.93;1.67;;;27.80;66.70;;;;;;6339462;28;20240;-63
2021/08/24 07:58:50;;;;;;;3.10;1.90;;;27.50;67.30;;;;;;6340145;27;20229;-63
2021/08/24 08:01:55;;;;;;;4.03;1.80;;;27.50;67.90;;;;;;6347975;28;20274;-63
2021/08/24 08:04:58;;;;;;;3.63;2.43;;;29.50;66.20;;;;;;6331100;27;20234;-60
2021/08/24 08:08:01;;;;;;;4.47;2.63;;;31.00;59.50;;;;;;6326957;28;20236;-61
2021/08/24 08:11:04;;;;;;;5.13;2.23;;;31.40;59.40;;;;;;6326550;28;20236;-60
2021/08/24 08:14:09;;;;;;;4.43;2.53;;;32.60;56.80;;;;;;6326998;28;20218;-63
2021/08/24 08:17:13;;;;;;;7.65;3.40;;;35.00;53.60;;;;;;6326751;28;20222;-61
2021/08/24 08:20:17;;;;;;;5.22;2.75;;;37.10;47.10;;;;;;6322264;28;20190;-63
2021/08/24 08:23:21;;;;;;;3.65;2.30;;;37.60;43.50;;;;;;6301688;28;20202;-63
2021/08/24 08:26:25;;;;;;;4.20;3.03;;;36.60;43.30;;;;;;6301193;28;20202;-62
2021/08/24 08:29:28;;;;;;;6.20;3.92;;;37.00;44.40;;;;;;6301675;28;20226;-66
2021/08/24 08:32:33;;;;;;;11.05;4.10;;;38.10;42.40;;;;;;6301224;28;20367;-65
2021/08/24 08:35:36;;;;;;;7.25;3.67;;;40.10;39.90;;;;;;6301643;28;20229;-66
2021/08/24 08:38:39;;;;;;;4.72;3.45;;;42.30;36.20;;;;;;6300853;28;20230;-65
2021/08/24 08:41:56;;;;;;;5.68;2.90;;;43.00;34.20;;;;;;6301500;28;20222;-67
2021/08/24 08:45:06;;;;;;;2.92;2.63;;;44.00;31.70;;;;;;6300706;28;20241;-68
2021/08/24 08:48:35;;;;;;;6.07;3.28;;;44.20;30.10;;;;;;6300977;28;20231;-68
2021/08/24 08:51:47;;;;;;;7.13;4.00;;;45.20;29.80;;;;;;6300930;28;20225;-68
2021/08/24 08:55:03;;;;;;;4.75;4.03;;;46.30;29.10;;;;;;6308392;28;20235;-68
2021/08/24 08:58:15;;;;;;;4.70;3.80;;;46.80;28.60;;;;;;6325584;28;20240;-60
2021/08/24 09:01:24;;;;;;;4.53;3.20;;;47.50;27.20;;;;;;6325542;28;20241;-64
2021/08/24 09:04:34;;;;;;;4.03;2.95;;;47.90;26.90;;;;;;6326036;28;20238;-64
2021/08/24 09:07:42;;;;;;;4.53;2.72;;;48.70;25.90;;;;;;6325316;28;20244;-66
2021/08/24 09:10:47;;;;;;;3.15;2.30;;;48.90;25.30;;;;;;6325548;28;20239;-60
2021/08/24 09:13:56;;;;;;;4.28;2.20;;;48.00;25.40;;;;;;6325062;28;20574;-65
2021/08/24 09:17:04;;;;;;;4.40;2.88;;;47.90;25.30;;;;;;6324839;28;20237;-67
2021/08/24 09:20:20;;;;;;;3.17;2.55;;;47.20;25.80;;;;;;6324926;28;20238;-66
2021/08/24 09:23:23;;;;;;;4.15;2.85;;;45.90;26.50;;;;;;6301146;28;20183;-63
2021/08/24 09:26:51;;;;;;;6.88;2.33;;;44.00;27.10;;;;;;6290994;28;20218;-58
2021/08/24 09:29:57;;;;;;;2.10;1.48;;;42.30;28.50;;;;;;6300061;28;20225;-62
2021/08/24 09:33:06;;;;;;;2.75;1.63;;;41.50;28.80;;;;;;6299597;28;20239;-61
2021/08/24 09:36:10;;;;;;;1.75;1.15;;;40.90;28.80;;;;;;6299685;28;20237;-61
2021/08/24 09:39:13;;;;;;;2.97;1.48;;;40.40;29.20;;;;;;6298940;28;20691;-62
2021/08/24 09:42:26;;;;;;;1.38;1.25;;;39.60;30.00;;;;;;6299499;28;20230;-63
2021/08/24 09:45:30;;;;;;;3.97;1.80;;;38.50;30.20;;;;;;6299018;28;20672;-61
2021/08/24 09:48:51;;;;;;;4.80;1.48;;;36.50;33.30;;;;;;6306210;28;20232;-62
2021/08/24 09:52:00;;;;;;;3.42;1.55;;;35.50;34.30;;;;;;6324606;28;20226;-63
2021/08/24 09:55:08;;;;;;;2.17;1.42;;;34.70;34.80;;;;;;6314514;28;20226;-62
2021/08/24 09:58:31;;;;;;;3.28;1.45;;;33.90;36.70;;;;;;6298913;28;20295;-64
2021/08/24 10:01:50;;;;;;;2.28;1.52;;;32.70;38.20;;;;;;6299439;28;20230;-62
2021/08/24 10:04:54;;;;;;;4.32;1.98;;;31.10;41.30;;;;;;6299416;28;20264;-62
2021/08/24 10:08:01;;;;;;;3.77;1.77;;;30.40;43.20;;;;;;6298588;28;20238;-61
2021/08/24 10:11:13;;;;;;;4.90;2.40;;;29.60;46.00;;;;;;6299344;28;20229;-63
2021/08/24 10:14:22;;;;;;;2.70;2.07;;;29.20;48.10;;;;;;6298540;28;20550;-61
2021/08/24 10:17:30;;;;;;;2.90;1.90;;;28.90;49.00;;;;;;6299431;28;20222;-63
2021/08/24 10:20:35;;;;;;;4.57;1.97;;;28.70;49.10;;;;;;6299180;28;20237;-61
2021/08/24 10:23:49;;;;;;;5.27;3.07;;;28.20;51.10;;;;;;6323901;28;20226;-62
2021/08/24 10:26:56;;;;;;;4.60;1.93;;;27.90;52.40;;;;;;6323212;28;20563;-62
2021/08/24 10:30:03;;;;;;;4.83;2.00;;;27.70;53.80;;;;;;6323661;28;20238;-61
2021/08/24 10:33:06;;;;;;;2.93;1.83;;;27.50;54.10;;;;;;6314302;28;20229;-62
2021/08/24 10:36:21;;;;;;;1.83;1.50;;;27.50;54.10;;;;;;6324016;28;20234;-63
2021/08/24 10:39:31;;;;;;;5.63;1.77;;;27.40;55.00;;;;;;6323741;28;20232;-62
2021/08/24 10:42:35;;;;;;;2.00;1.50;;;27.40;54.40;;;;;;6323836;28;20222;-63
2021/08/24 10:45:40;;;;;;;1.70;1.30;;;27.30;55.50;;;;;;6323883;28;20237;-61
2021/08/24 10:48:44;;;;;;;3.10;1.67;;;27.00;55.70;;;;;;6323664;28;20597;-62
2021/08/24 10:51:59;;;;;;;3.17;1.50;;;26.80;56.30;;;;;;6323632;28;20230;-62
2021/08/24 10:55:09;;;;;;;3.20;1.70;;;26.50;55.40;;;;;;6313853;28;20230;-61
2021/08/24 10:58:19;;;;;;;2.20;1.33;;;26.20;57.10;;;;;;6298442;28;20230;-64
2021/08/24 11:01:28;;;;;;;1.60;1.40;;;26.00;58.20;;;;;;6298016;28;20241;-61
2021/08/24 11:04:58;;;;;;;2.80;1.60;;;26.00;58.10;;;;;;6296449;28;20328;-63
2021/08/24 11:08:20;;;;;;;5.47;1.90;;;25.90;59.20;;;;;;6296872;28;20249;-62
2021/08/24 11:11:38;;;;;;;3.43;1.63;;;25.90;58.70;;;;;;6297075;28;20613;-63
2021/08/24 11:14:56;;;;;;;3.07;1.63;;;26.00;59.40;;;;;;6297113;28;20239;-63
2021/08/24 11:18:04;;;;;;;2.40;1.83;;;26.00;59.60;;;;;;6298334;28;20226;-61
2021/08/24 11:21:12;;;;;;;5.10;1.77;;;26.30;58.80;;;;;;6303362;28;20233;-61
2021/08/24 11:24:31;;;;;;;1.30;1.07;;;26.70;58.80;;;;;;6323627;28;20237;-61
2021/08/24 11:27:44;;;;;;;2.60;1.20;;;26.90;56.40;;;;;;6323528;28;20304;-62
2021/08/24 11:30:55;;;;;;;2.00;1.70;;;27.50;56.80;;;;;;6323402;28;20222;-60
2021/08/24 11:34:05;;;;;;;3.47;1.80;;;28.00;55.60;;;;;;6322848;28;20555;-61
2021/08/24 11:37:13;;;;;;;1.90;1.70;;;28.30;54.30;;;;;;6314384;28;20237;-60
2021/08/24 11:40:24;;;;;;;2.50;1.13;;;28.20;53.50;;;;;;6325842;28;20237;-59
2021/08/24 11:43:36;;;;;;;1.97;1.20;;;28.40;52.50;;;;;;6327971;28;20242;-61
2021/08/24 11:46:46;;;;;;;1.43;0.73;;;28.60;51.80;;;;;;6327460;28;20426;-60
2021/08/24 11:49:54;;;;;;;1.60;0.80;;;28.50;51.20;;;;;;6327497;28;20278;-60
2021/08/24 11:53:04;;;;;;;1.70;0.97;;;28.60;51.30;;;;;;6327008;28;20236;-61
2021/08/24 11:56:11;;;;;;;0.90;0.40;;;28.70;51.70;;;;;;6308347;28;20229;-61
2021/08/24 11:59:24;;;;;;;0.80;0.40;;;28.90;47.70;;;;;;6311519;28;20271;-65
2021/08/24 12:02:37;;;;;;;0.73;0.40;;;29.00;47.70;;;;;;6346538;28;20193;-63
2021/08/24 12:05:44;;;;;;;0.80;0.40;;;28.90;47.00;;;;;;6331940;28;20358;-64
2021/08/24 12:08:52;;;;;;;0.80;0.40;;;29.00;47.00;;;;;;6345460;28;20664;-63
2021/08/24 12:11:55;;;;;;;0.80;0.50;;;29.00;44.70;;;;;;6341556;27;20224;-63
2021/08/24 12:15:04;;;;;;;0.80;0.50;;;29.00;44.70;;;;;;6345697;28;20243;-64
2021/08/24 12:18:25;;;;;;;0.80;0.50;;;29.20;45.70;;;;;;6332015;28;20611;-64
2021/08/24 12:21:33;;;;;;;0.87;0.60;;;29.60;47.10;;;;;;6332679;28;20225;-62
2021/08/24 12:25:02;;;;;;;2.90;0.83;;;29.90;48.40;;;;;;6343770;27;20228;-64
2021/08/24 12:28:29;;;;;;;0.73;0.47;;;30.20;47.50;;;;;;6334774;28;20519;-64
2021/08/24 12:31:45;;;;;;;0.90;0.40;;;30.50;45.60;;;;;;6344704;28;20229;-62
2021/08/24 12:34:54;;;;;;;0.97;0.33;;;30.60;44.60;;;;;;6329378;28;20217;-62
2021/08/24 12:37:58;;;;;;;0.67;0.30;;;30.30;41.30;;;;;;6332969;28;20229;-64
2021/08/24 12:41:02;;;;;;;1.30;0.50;;;30.30;43.20;;;;;;6337875;28;20229;-64
2021/08/24 12:44:23;;;;;;;1.47;0.50;;;30.10;44.30;;;;;;6330090;28;20213;-64
2021/08/24 12:47:42;;;;;;;0.93;0.30;;;30.10;44.60;;;;;;6342417;28;20725;-64
2021/08/24 12:51:05;;;;;;;0.93;0.47;;;30.30;43.50;;;;;;6300551;28;20222;-63
2021/08/24 12:54:08;;;;;;;1.40;1.00;;;30.40;44.50;;;;;;6301466;28;20249;-63
2021/08/24 12:57:14;;;;;;;0.70;0.50;;;30.20;44.70;;;;;;6328912;28;20228;-63
2021/08/24 13:00:23;;;;;;;0.70;0.30;;;29.80;45.60;;;;;;6331090;28;20237;-64
2021/08/24 13:03:28;;;;;;;0.63;0.33;;;29.60;45.20;;;;;;6338697;28;20222;-64
2021/08/24 13:06:34;;;;;;;0.80;0.50;;;29.60;44.60;;;;;;6333607;28;20243;-64
2021/08/24 13:09:40;;;;;;;1.57;0.40;;;29.40;44.10;;;;;;6327976;28;20680;-64
2021/08/24 13:12:45;;;;;;;0.63;0.20;;;29.10;44.70;;;;;;6333645;28;20237;-64
2021/08/24 13:15:54;;;;;;;1.80;0.50;;;28.80;45.50;;;;;;6336221;28;20225;-64
2021/08/24 13:19:01;;;;;;;0.57;0.30;;;28.70;45.30;;;;;;6333943;28;20240;-64
2021/08/24 13:22:06;;;;;;;9.00;0.87;;;28.70;45.60;;;;;;6334130;27;20221;-63
2021/08/24 13:25:15;;;;;;;0.70;0.30;;;28.60;46.20;;;;;;6332864;28;20220;-64
2021/08/24 13:28:24;;;;;;;3.23;0.37;;;28.40;45.90;;;;;;6334982;27;20675;-63
2021/08/24 13:31:40;;;;;;;0.60;0.23;;;28.20;46.60;;;;;;6347550;28;20254;-63
2021/08/24 13:34:48;;;;;;;0.70;0.40;;;28.00;46.90;;;;;;6334113;28;20252;-63
2021/08/24 13:38:05;;;;;;;0.60;0.30;;;28.00;47.30;;;;;;6345265;28;20391;-61
2021/08/24 13:41:12;;;;;;;0.70;0.40;;;28.00;46.70;;;;;;6349939;28;20236;-62
2021/08/24 13:44:18;;;;;;;0.57;0.30;;;27.90;47.00;;;;;;6350446;28;20204;-62
2021/08/24 13:47:25;;;;;;;0.70;0.30;;;28.10;47.00;;;;;;6347208;28;20562;-61
2021/08/24 13:50:35;;;;;;;0.73;0.30;;;28.20;46.90;;;;;;6324971;28;20198;-61
2021/08/24 13:53:52;;;;;;;0.83;0.30;;;28.00;46.90;;;;;;6324900;28;20232;-61
2021/08/24 13:56:56;;;;;;;0.70;0.30;;;27.80;46.90;;;;;;6299717;28;20292;-61
2021/08/24 14:00:02;;;;;;;0.70;0.30;;;27.70;46.50;;;;;;6298933;28;20238;-62
2021/08/24 14:03:12;;;;;;;0.80;0.40;;;27.80;46.50;;;;;;6299058;28;20667;-62
2021/08/24 14:06:32;;;;;;;1.00;0.37;;;27.80;46.80;;;;;;6299034;28;20226;-62
2021/08/24 14:09:41;;;;;;;1.40;0.50;;;28.10;47.00;;;;;;6299324;28;20235;-64
2021/08/24 14:12:51;;;;;;;0.60;0.30;;;28.20;45.40;;;;;;6299024;28;20572;-63
2021/08/24 14:15:56;;;;;;;0.73;0.33;;;28.00;45.90;;;;;;6299155;28;20336;-63
2021/08/24 14:19:06;;;;;;;0.60;0.30;;;27.60;45.20;;;;;;6299161;28;20694;-64
2021/08/24 14:22:12;;;;;;;0.80;0.40;;;27.50;46.10;;;;;;6312805;28;20221;-63
2021/08/24 14:25:18;;;;;;;1.33;0.30;;;27.30;46.60;;;;;;6323977;28;20225;-63
2021/08/24 14:28:25;;;;;;;0.70;0.20;;;27.10;47.60;;;;;;6323935;28;20244;-62
2021/08/24 14:31:33;;;;;;;0.70;0.40;;;27.00;47.70;;;;;;6323482;28;20234;-64
2021/08/24 14:34:41;;;;;;;2.83;1.00;;;26.80;49.20;;;;;;6323890;28;20648;-61
2021/08/24 14:37:48;;;;;;;0.80;0.40;;;26.80;51.60;;;;;;6323410;28;20229;-63
2021/08/24 14:40:51;;;;;;;0.70;0.30;;;26.70;49.90;;;;;;6323969;28;20283;-63
2021/08/24 14:43:57;;;;;;;1.40;0.30;;;26.60;48.50;;;;;;6323461;28;20230;-62
2021/08/24 14:47:03;;;;;;;0.73;0.40;;;26.50;49.00;;;;;;6313858;28;20576;-61
2021/08/24 14:50:09;;;;;;;3.33;0.30;;;26.50;48.70;;;;;;6317833;28;20244;-62
2021/08/24 14:53:25;;;;;;;0.60;0.40;;;26.50;48.40;;;;;;6323296;27;20214;-61
2021/08/24 14:56:32;;;;;;;0.80;0.40;;;26.70;49.00;;;;;;6276446;28;20665;-62
2021/08/24 14:59:35;;;;;;;0.80;0.37;;;26.70;49.10;;;;;;6273453;28;20369;-61
2021/08/24 15:02:45;;;;;;;1.80;0.40;;;26.80;49.00;;;;;;6273733;28;20223;-62
2021/08/24 15:05:50;;;;;;;0.70;0.30;;;26.80;49.20;;;;;;6273788;28;20544;-61
2021/08/24 15:08:53;;;;;;;0.70;0.40;;;26.80;49.20;;;;;;6273827;28;20360;-61
2021/08/24 15:11:58;;;;;;;0.73;0.50;;;26.70;49.50;;;;;;6273113;28;21028;-63
2021/08/24 15:15:06;;;;;;;1.00;0.90;;;26.80;50.00;;;;;;6276056;28;20253;-61
2021/08/24 15:18:11;;;;;;;0.77;0.43;;;26.80;49.60;;;;;;6278155;28;20320;-60
2021/08/24 15:21:22;;;;;;;0.60;0.30;;;26.80;49.70;;;;;;6284379;28;20218;-63
2021/08/24 15:24:27;;;;;;;0.77;0.47;;;26.80;49.40;;;;;;6302572;28;20234;-62
2021/08/24 15:27:35;;;;;;;0.60;0.30;;;26.90;49.90;;;;;;6303565;28;20233;-61
2021/08/24 15:30:38;;;;;;;0.90;0.50;;;26.80;51.10;;;;;;6302808;28;20248;-61
2021/08/24 15:33:45;;;;;;;0.80;0.60;;;26.80;52.00;;;;;;6303242;28;20291;-62
2021/08/24 15:36:49;;;;;;;0.60;0.40;;;26.70;51.50;;;;;;6302156;28;20245;-61
2021/08/24 15:39:52;;;;;;;0.87;0.57;;;26.60;51.80;;;;;;6302614;28;20245;-62
2021/08/24 15:42:56;;;;;;;0.70;0.30;;;26.60;52.40;;;;;;6303021;28;20241;-63
2021/08/24 15:45:59;;;;;;;1.00;0.50;;;26.60;52.80;;;;;;6305598;28;20577;-63
2021/08/24 15:49:04;;;;;;;0.80;0.40;;;26.70;53.00;;;;;;6298622;28;20233;-62
2021/08/24 15:52:09;;;;;;;0.80;0.50;;;26.70;52.70;;;;;;6308718;28;20232;-63
2021/08/24 15:55:28;;;;;;;0.60;0.27;;;26.60;51.90;;;;;;6317832;28;20221;-63
2021/08/24 15:58:32;;;;;;;0.90;0.60;;;26.40;51.40;;;;;;6321196;28;20226;-63
2021/08/24 16:01:36;;;;;;;1.10;0.50;;;26.10;51.80;;;;;;6313969;28;20301;-63
2021/08/24 16:04:41;;;;;;;0.70;0.37;;;26.10;53.10;;;;;;6301953;28;20703;-63
2021/08/24 16:07:45;;;;;;;1.47;0.40;;;26.00;53.50;;;;;;6301570;28;20681;-62
2021/08/24 16:10:49;;;;;;;0.90;0.43;;;26.00;53.80;;;;;;6306202;28;20229;-63
2021/08/24 16:13:52;;;;;;;0.73;0.50;;;25.80;54.00;;;;;;6317287;28;20244;-63